Port Gamble, Washington
Current Conditions -  °F | °C
As of 1:39 PM on Monday 24 Nov 2014 (Local Time) from KPAE Reporting Station
Overcast Overcast  
Wind Chill: 40°   Ceiling: 6000
Heat Index: 46°   Visibility: 10mi
Dew Point: 38°   Wind: 15mph
Humidity: 73%   Direction: 150°SSE
Pressure: 30.21"   Gusts: NA
Location:  47.85°N, 122.59°W
Report Text: KPAE 242139Z 15013KT 10SM SCT021 OVC060 08/03 A3021 RMK AO2 RAB07E39 P0000 T00780033
Loading
Personal Weather Stations






























Interactive Weather Map New forecast layout! Learn more

10-Day Weather Forecast

Advertisements
Track Severe Weather on mobile